createdAt,value
2023-03-22T00:01:53.727Z,89.22
2023-03-22T00:04:18.128Z,90.97
2023-03-22T00:06:45.440Z,92.18
2023-03-22T00:09:10.224Z,92.57
2023-03-22T00:11:35.932Z,97.68
2023-03-22T00:14:00.845Z,93.53
2023-03-22T00:16:25.535Z,91.85
2023-03-22T00:18:51.515Z,91.15
2023-03-22T00:21:17.723Z,97.30
2023-03-22T00:23:42.458Z,94.68
2023-03-22T00:26:07.692Z,89.85
2023-03-22T00:28:32.176Z,92.97
2023-03-22T00:30:59.149Z,93.38
2023-03-22T00:33:25.254Z,92.65
2023-03-22T00:35:52.576Z,94.07
2023-03-22T00:38:17.384Z,88.93
2023-03-22T00:40:42.459Z,100.57
2023-03-22T00:43:06.910Z,85.95
2023-03-22T00:45:31.456Z,98.80
2023-03-22T00:47:56.080Z,98.40
2023-03-22T00:50:20.759Z,97.55
2023-03-22T00:52:47.819Z,92.93
2023-03-22T00:55:12.572Z,97.40
2023-03-22T00:57:37.937Z,105.15
2023-03-22T01:00:09.964Z,93.65
2023-03-22T01:02:35.056Z,96.20
2023-03-22T01:04:59.555Z,95.35
2023-03-22T01:07:24.695Z,99.15
2023-03-22T01:09:50.847Z,95.97
2023-03-22T01:12:16.147Z,98.53
2023-03-22T01:14:40.880Z,97.90
2023-03-22T01:17:05.451Z,92.88
2023-03-22T01:19:30.039Z,107.47
2023-03-22T01:21:54.911Z,101.65
2023-03-22T01:24:21.089Z,92.60
2023-03-22T01:26:47.536Z,98.65
2023-03-22T01:29:12.074Z,96.97
2023-03-22T01:31:37.204Z,97.22
2023-03-22T01:34:01.620Z,107.18
2023-03-22T01:36:26.841Z,105.03
2023-03-22T01:38:51.386Z,111.03
2023-03-22T01:41:17.381Z,99.90
2023-03-22T01:43:44.336Z,104.13
2023-03-22T01:46:10.083Z,98.05
2023-03-22T01:48:42.125Z,100.53
2023-03-22T01:51:11.455Z,107.05
2023-03-22T01:53:58.814Z,95.50
2023-03-22T01:56:26.995Z,103.15
2023-03-22T01:58:55.850Z,97.30
2023-03-22T02:01:28.734Z,105.55
2023-03-22T02:03:58.748Z,103.88
2023-03-22T02:08:58.092Z,103.78
2023-03-22T02:11:30.534Z,111.03
2023-03-22T02:14:17.953Z,98.90
2023-03-22T02:17:32.635Z,97.95
2023-03-22T02:20:40.179Z,95.60
2023-03-22T02:23:44.795Z,107.68
2023-03-22T02:26:54.731Z,104.13
2023-03-22T02:32:28.556Z,104.30
2023-03-22T02:35:35.832Z,102.13
2023-03-22T02:39:00.948Z,108.65
2023-03-22T02:41:36.536Z,98.80
2023-03-22T02:44:10.045Z,92.47
2023-03-22T02:46:42.112Z,101.93
2023-03-22T02:49:17.473Z,92.82
2023-03-22T02:51:46.179Z,102.45
2023-03-22T02:54:14.665Z,106.18
2023-03-22T02:56:44.061Z,95.30
2023-03-22T02:59:14.994Z,100.57
2023-03-22T03:01:42.415Z,93.28
2023-03-22T03:04:14.113Z,99.00
2023-03-22T03:06:46.282Z,97.13
2023-03-22T03:09:13.855Z,100.53
2023-03-22T03:11:38.482Z,93.65
2023-03-22T03:14:04.819Z,101.47
2023-03-22T03:16:35.149Z,93.50
2023-03-22T03:19:04.109Z,94.35
2023-03-22T03:21:36.989Z,94.50
2023-03-22T03:24:15.596Z,95.63
2023-03-22T03:26:48.258Z,91.55
2023-03-22T03:29:21.747Z,102.95
2023-03-22T03:31:52.263Z,94.95
2023-03-22T03:34:21.783Z,97.85
2023-03-22T03:36:54.680Z,96.93
2023-03-22T03:39:20.810Z,98.97
2023-03-22T03:41:47.189Z,99.30
2023-03-22T03:44:14.930Z,99.82
2023-03-22T03:46:42.902Z,95.97
2023-03-22T03:49:10.010Z,92.43
2023-03-22T03:51:46.010Z,96.20
2023-03-22T03:54:10.624Z,97.53
2023-03-22T03:56:35.151Z,98.18
2023-03-22T03:58:59.651Z,94.57
2023-03-22T04:01:26.510Z,98.80
2023-03-22T04:04:06.871Z,101.93
2023-03-22T04:06:53.186Z,100.78
2023-03-22T04:09:21.671Z,89.85
2023-03-22T04:11:51.550Z,98.57
2023-03-22T04:14:34.896Z,103.43
2023-03-22T04:17:07.684Z,96.40
2023-03-22T04:19:33.377Z,93.45
2023-03-22T04:21:58.273Z,100.25
2023-03-22T04:24:23.486Z,91.40
2023-03-22T04:26:50.792Z,98.90
2023-03-22T04:29:23.089Z,87.90
2023-03-22T04:34:35.164Z,88.97
2023-03-22T04:37:03.206Z,104.00
2023-03-22T04:39:34.157Z,88.00
2023-03-22T04:42:22.179Z,95.80
2023-03-22T04:44:53.734Z,103.43
2023-03-22T04:47:18.526Z,92.80
2023-03-22T04:49:44.563Z,93.32
2023-03-22T04:52:09.685Z,95.72
2023-03-22T04:54:35.004Z,93.18
2023-03-22T04:57:01.057Z,94.65
2023-03-22T04:59:29.582Z,96.20
2023-03-22T05:01:56.169Z,87.72
2023-03-22T05:04:25.034Z,90.93
2023-03-22T05:06:57.773Z,89.75
2023-03-22T05:09:29.020Z,96.60
2023-03-22T05:11:56.602Z,95.95
2023-03-22T05:14:41.371Z,90.88
2023-03-22T05:17:08.315Z,88.95
2023-03-22T05:19:34.915Z,95.95
2023-03-22T05:22:02.251Z,100.20
2023-03-22T05:24:47.316Z,92.53
2023-03-22T05:27:19.141Z,91.90
2023-03-22T05:29:46.854Z,84.55
2023-03-22T05:32:25.734Z,99.85
2023-03-22T05:34:52.585Z,91.15
2023-03-22T05:37:25.882Z,92.35
2023-03-22T05:39:54.397Z,89.15
2023-03-22T05:42:23.721Z,89.15
2023-03-22T05:44:49.513Z,90.00
2023-03-22T05:47:14.440Z,95.40
2023-03-22T05:50:13.348Z,98.32
2023-03-22T05:52:40.069Z,96.63
2023-03-22T05:55:20.678Z,92.43
2023-03-22T05:57:47.782Z,92.15
2023-03-22T06:00:16.964Z,87.30
2023-03-22T06:03:03.834Z,89.53
2023-03-22T06:05:31.970Z,94.20
2023-03-22T06:07:57.819Z,89.15
2023-03-22T06:10:24.236Z,76.40
2023-03-22T06:12:49.064Z,80.53
2023-03-22T06:15:22.074Z,81.60
2023-03-22T06:17:55.522Z,81.35
2023-03-22T06:20:25.640Z,70.88
2023-03-22T06:22:58.618Z,80.13
2023-03-22T06:25:23.468Z,78.45
2023-03-22T06:27:49.250Z,74.05
2023-03-22T06:30:15.072Z,78.78
2023-03-22T06:32:57.172Z,71.78
2023-03-22T06:35:21.702Z,74.13
2023-03-22T06:37:48.054Z,72.03
2023-03-22T06:40:14.337Z,74.57
2023-03-22T06:42:38.886Z,77.45
2023-03-22T06:45:09.762Z,78.50
2023-03-22T06:47:36.289Z,74.25
2023-03-22T06:50:16.074Z,71.55
2023-03-22T06:53:01.481Z,70.53
2023-03-22T06:55:27.616Z,79.95
2023-03-22T06:57:52.931Z,76.72
2023-03-22T07:00:18.944Z,73.57
2023-03-22T07:02:47.491Z,72.95
2023-03-22T07:05:27.992Z,72.15
2023-03-22T07:07:52.729Z,72.55
2023-03-22T07:10:17.214Z,77.35
2023-03-22T07:12:43.138Z,74.70
2023-03-22T07:15:12.287Z,79.78
2023-03-22T07:17:54.122Z,70.93
2023-03-22T07:20:18.869Z,68.18
2023-03-22T07:22:46.526Z,77.03
2023-03-22T07:25:13.220Z,67.45
2023-03-22T07:27:39.275Z,66.07
2023-03-22T07:30:07.719Z,81.50
2023-03-22T07:32:37.685Z,72.68
2023-03-22T07:35:06.412Z,66.57
2023-03-22T07:37:31.007Z,67.47
2023-03-22T07:39:55.708Z,72.57
2023-03-22T07:42:22.352Z,77.32
2023-03-22T07:45:14.594Z,68.45
2023-03-22T07:47:41.872Z,63.30
2023-03-22T07:50:21.809Z,65.68
2023-03-22T07:52:54.252Z,60.67
2023-03-22T07:55:18.989Z,60.72
2023-03-22T07:57:43.424Z,62.03
2023-03-22T08:00:11.145Z,67.40
2023-03-22T08:02:48.259Z,60.10
2023-03-22T08:05:29.860Z,61.95
2023-03-22T08:08:01.672Z,65.45
2023-03-22T08:10:26.426Z,58.13
2023-03-22T08:12:52.024Z,59.97
2023-03-22T08:15:23.423Z,53.80
2023-03-22T08:17:50.287Z,60.28
2023-03-22T08:20:29.290Z,64.78
2023-03-22T08:22:58.239Z,69.40
2023-03-22T08:25:25.748Z,65.00
2023-03-22T08:27:53.252Z,62.10
2023-03-22T08:30:18.063Z,61.35
2023-03-22T08:32:45.207Z,61.47
2023-03-22T08:35:12.784Z,60.25
2023-03-22T08:37:37.887Z,67.47
2023-03-22T08:40:07.381Z,56.53
2023-03-22T08:42:46.589Z,62.42
2023-03-22T08:45:12.119Z,66.65
2023-03-22T08:47:46.097Z,63.80
2023-03-22T08:50:13.497Z,70.97
2023-03-22T08:52:47.278Z,62.00
2023-03-22T08:55:29.724Z,66.40
2023-03-22T08:58:06.598Z,63.20
2023-03-22T09:01:06.887Z,63.42
2023-03-22T09:03:40.738Z,63.88
2023-03-22T09:06:07.948Z,65.75
2023-03-22T09:11:06.253Z,65.05
2023-03-22T09:13:32.016Z,64.93
2023-03-22T09:15:59.332Z,71.70
2023-03-22T09:18:28.452Z,64.55
2023-03-22T09:20:57.716Z,63.70
2023-03-22T09:23:30.413Z,62.40
2023-03-22T09:25:54.976Z,68.35
2023-03-22T09:28:24.019Z,62.05
2023-03-22T09:30:51.390Z,68.70
2023-03-22T09:33:15.955Z,68.10
2023-03-22T09:35:43.746Z,60.50
2023-03-22T09:38:11.055Z,62.53
2023-03-22T09:40:39.322Z,65.78
2023-03-22T09:43:07.359Z,67.55
2023-03-22T09:48:07.156Z,63.90
2023-03-22T09:50:34.241Z,64.88
2023-03-22T09:52:59.066Z,69.88
2023-03-22T09:55:29.011Z,70.70
2023-03-22T09:58:04.288Z,62.45
2023-03-22T10:00:39.588Z,65.70
2023-03-22T10:03:17.497Z,66.72
2023-03-22T10:05:48.620Z,63.42
2023-03-22T10:08:32.314Z,64.53
2023-03-22T10:10:58.061Z,67.22
2023-03-22T10:13:28.240Z,67.72
2023-03-22T10:15:54.918Z,71.25
2023-03-22T10:18:22.506Z,70.88
2023-03-22T10:20:52.251Z,62.97
2023-03-22T10:23:23.540Z,65.78
2023-03-22T10:25:53.275Z,69.90
2023-03-22T10:28:21.591Z,65.50
2023-03-22T10:30:53.571Z,62.88
2023-03-22T10:33:24.974Z,68.32
2023-03-22T10:35:50.659Z,63.42
2023-03-22T10:38:22.349Z,66.75
2023-03-22T10:40:48.443Z,62.42
2023-03-22T10:43:22.470Z,70.78
2023-03-22T10:45:48.650Z,67.15
2023-03-22T10:48:19.391Z,69.70
2023-03-22T10:50:46.901Z,72.65
2023-03-22T10:53:20.744Z,75.45
2023-03-22T10:55:46.045Z,69.40
2023-03-22T10:58:15.769Z,62.58
2023-03-22T11:00:44.872Z,65.38
2023-03-22T11:03:24.174Z,66.28
2023-03-22T11:06:00.584Z,66.50
2023-03-22T11:08:37.482Z,64.70
2023-03-22T11:11:03.904Z,64.75
2023-03-22T11:13:29.060Z,66.05
2023-03-22T11:15:56.924Z,62.85
2023-03-22T11:18:30.893Z,62.88
2023-03-22T11:20:59.530Z,64.97
2023-03-22T11:23:25.402Z,65.47
2023-03-22T11:25:51.999Z,65.25
2023-03-22T11:28:20.118Z,66.88
2023-03-22T11:31:00.118Z,67.88
2023-03-22T11:35:57.566Z,65.65
2023-03-22T11:38:38.200Z,74.93
2023-03-22T11:41:05.657Z,68.88
2023-03-22T11:43:35.563Z,66.30
2023-03-22T11:48:31.705Z,62.08
2023-03-22T11:51:00.464Z,61.97
2023-03-22T11:53:27.599Z,62.05
2023-03-22T11:55:55.212Z,59.67
2023-03-22T11:58:28.215Z,62.17
2023-03-22T12:00:54.750Z,64.32
2023-03-22T12:03:23.155Z,60.05
2023-03-22T12:05:52.050Z,57.85
2023-03-22T12:08:25.044Z,62.88
2023-03-22T12:10:53.727Z,63.97
2023-03-22T12:13:22.610Z,64.55
2023-03-22T12:15:54.646Z,60.58
2023-03-22T12:18:26.598Z,60.78
2023-03-22T12:20:56.842Z,57.17
2023-03-22T12:23:23.993Z,63.58
2023-03-22T12:25:52.790Z,58.22
2023-03-22T12:28:21.515Z,62.58
2023-03-22T12:30:49.365Z,60.13
2023-03-22T12:33:19.635Z,58.85
2023-03-22T12:35:46.825Z,61.70
2023-03-22T12:38:27.861Z,61.22
2023-03-22T12:40:56.132Z,63.85
2023-03-22T12:43:29.296Z,61.47
2023-03-22T12:46:00.441Z,55.90
2023-03-22T12:48:33.678Z,84.90
2023-03-22T12:51:01.334Z,64.55
2023-03-22T12:53:31.816Z,62.65
2023-03-22T12:55:58.411Z,57.25
2023-03-22T12:58:27.076Z,57.95
2023-03-22T13:00:56.367Z,62.60
2023-03-22T13:03:28.790Z,60.20
2023-03-22T13:06:03.214Z,63.20
2023-03-22T13:09:19.293Z,61.08
2023-03-22T13:11:46.782Z,66.65
2023-03-22T13:14:15.406Z,61.78
2023-03-22T13:16:53.346Z,62.88
2023-03-22T13:19:37.697Z,60.97
2023-03-22T13:22:21.152Z,68.45
2023-03-22T13:25:29.119Z,68.40
2023-03-22T13:27:57.984Z,73.18
2023-03-22T13:30:26.475Z,80.82
2023-03-22T13:32:56.470Z,79.70
2023-03-22T13:35:28.111Z,82.57
2023-03-22T13:37:53.460Z,82.68
2023-03-22T13:40:31.303Z,80.85
2023-03-22T13:42:55.930Z,81.97
2023-03-22T13:45:32.531Z,85.80
2023-03-22T13:48:05.988Z,84.47
2023-03-22T13:50:32.891Z,87.88
2023-03-22T13:53:05.120Z,87.65
2023-03-22T13:55:43.934Z,85.80
2023-03-22T13:58:12.299Z,89.97
2023-03-22T14:00:54.116Z,85.78
2023-03-22T14:03:29.035Z,86.40
2023-03-22T14:06:09.607Z,84.53
2023-03-22T14:08:37.609Z,71.50
2023-03-22T14:11:13.890Z,67.57
2023-03-22T14:13:49.391Z,64.82
2023-03-22T14:16:19.551Z,70.03
2023-03-22T14:18:46.842Z,65.28
2023-03-22T14:21:17.789Z,62.10
